createdAt,value
2019-04-30T00:01:48.474Z,99.90
2019-04-30T00:04:25.425Z,99.90
2019-04-30T00:06:55.621Z,99.90
2019-04-30T00:09:25.780Z,99.90
2019-04-30T00:11:57.800Z,99.90
2019-04-30T00:14:32.152Z,99.90
2019-04-30T00:16:56.332Z,99.90
2019-04-30T00:19:26.041Z,99.90
2019-04-30T00:22:00.093Z,99.90
2019-04-30T00:24:26.038Z,99.90
2019-04-30T00:26:55.337Z,99.90
2019-04-30T00:29:30.153Z,99.90
2019-04-30T00:31:57.624Z,99.90
2019-04-30T00:34:26.126Z,99.90
2019-04-30T00:36:56.019Z,99.90
2019-04-30T00:39:27.117Z,99.90
2019-04-30T00:41:56.741Z,99.90
2019-04-30T00:44:28.319Z,99.90
2019-04-30T00:47:00.547Z,99.90
2019-04-30T00:49:27.168Z,99.90
2019-04-30T00:51:58.108Z,99.90
2019-04-30T00:54:29.393Z,99.90
2019-04-30T00:57:03.611Z,99.90
2019-04-30T00:59:28.296Z,99.90
2019-04-30T01:02:07.569Z,99.90
2019-04-30T01:04:41.808Z,99.90
2019-04-30T01:07:11.422Z,99.90
2019-04-30T01:09:46.552Z,99.90
2019-04-30T01:12:11.450Z,99.90
2019-04-30T01:14:40.491Z,99.90
2019-04-30T01:17:12.303Z,99.90
2019-04-30T01:19:40.586Z,99.90
2019-04-30T01:22:09.699Z,99.90
2019-04-30T01:24:38.889Z,99.90
2019-04-30T01:27:10.435Z,99.90
2019-04-30T01:29:44.116Z,99.90
2019-04-30T01:32:16.829Z,99.90
2019-04-30T01:34:44.264Z,99.90
2019-04-30T01:37:11.629Z,99.90
2019-04-30T01:39:40.713Z,99.90
2019-04-30T01:42:11.401Z,99.90
2019-04-30T01:44:43.543Z,99.90
2019-04-30T01:47:11.347Z,99.90
2019-04-30T01:49:42.910Z,99.90
2019-04-30T01:52:11.036Z,99.90
2019-04-30T01:54:40.147Z,99.90
2019-04-30T01:57:31.206Z,99.90
2019-04-30T02:00:03.511Z,99.90
2019-04-30T02:02:34.104Z,99.90
2019-04-30T02:05:03.084Z,99.90
2019-04-30T02:07:32.007Z,99.90
2019-04-30T02:10:01.047Z,99.90
2019-04-30T02:12:30.235Z,99.90
2019-04-30T02:14:59.879Z,99.90
2019-04-30T02:17:29.364Z,99.90
2019-04-30T02:19:59.332Z,99.90
2019-04-30T02:22:31.156Z,99.90
2019-04-30T02:24:59.538Z,99.90
2019-04-30T02:27:29.467Z,99.90
2019-04-30T02:29:59.459Z,99.90
2019-04-30T02:32:30.472Z,99.90
2019-04-30T02:35:09.552Z,99.90
2019-04-30T02:37:43.421Z,99.90
2019-04-30T02:40:11.067Z,99.90
2019-04-30T02:42:40.609Z,99.90
2019-04-30T02:45:10.853Z,99.90
2019-04-30T02:47:40.122Z,99.90
2019-04-30T02:50:18.156Z,99.90
2019-04-30T02:52:41.242Z,99.90
2019-04-30T02:55:14.328Z,99.90
2019-04-30T02:57:43.413Z,99.90
2019-04-30T03:00:20.000Z,99.90
2019-04-30T03:02:50.250Z,99.90
2019-04-30T03:05:20.165Z,99.90
2019-04-30T03:07:50.353Z,99.90
2019-04-30T03:10:20.117Z,99.90
2019-04-30T03:12:49.971Z,99.90
2019-04-30T03:15:22.697Z,99.90
2019-04-30T03:17:56.431Z,99.90
2019-04-30T03:20:36.141Z,99.90
2019-04-30T03:23:02.558Z,99.90
2019-04-30T03:25:31.734Z,99.90
2019-04-30T03:28:00.730Z,99.90
2019-04-30T03:30:32.087Z,99.90
2019-04-30T03:33:02.584Z,99.90
2019-04-30T03:35:32.479Z,99.90
2019-04-30T03:38:01.954Z,99.90
2019-04-30T03:40:30.885Z,99.90
2019-04-30T03:43:03.085Z,99.90
2019-04-30T03:45:30.595Z,99.90
2019-04-30T03:48:00.411Z,99.90
2019-04-30T03:50:48.201Z,99.90
2019-04-30T03:53:00.660Z,99.90
2019-04-30T03:55:30.054Z,99.90
2019-04-30T03:58:00.038Z,99.90
2019-04-30T04:00:46.725Z,99.90
2019-04-30T04:03:15.929Z,99.90
2019-04-30T04:05:49.961Z,99.90
2019-04-30T04:08:25.012Z,99.90
2019-04-30T04:11:16.121Z,99.90
2019-04-30T04:13:45.472Z,99.90
2019-04-30T04:16:14.551Z,99.90
2019-04-30T04:18:43.637Z,99.90
2019-04-30T04:21:16.789Z,99.90
2019-04-30T04:23:43.404Z,99.90
2019-04-30T04:26:12.373Z,99.90
2019-04-30T04:28:43.523Z,99.90
2019-04-30T04:31:12.018Z,99.90
2019-04-30T04:33:41.014Z,99.90
2019-04-30T04:36:10.129Z,99.90
2019-04-30T04:38:40.233Z,99.90
2019-04-30T04:41:10.367Z,99.90
2019-04-30T04:43:40.293Z,99.90
2019-04-30T04:46:09.451Z,99.90
2019-04-30T04:48:39.435Z,99.90
2019-04-30T04:51:19.776Z,99.90
2019-04-30T04:53:40.334Z,99.90
2019-04-30T04:56:10.098Z,99.90
2019-04-30T04:58:40.144Z,99.90
2019-04-30T05:01:11.868Z,99.90
2019-04-30T05:03:40.559Z,99.90
2019-04-30T05:06:11.705Z,99.90
2019-04-30T05:08:40.687Z,99.90
2019-04-30T05:11:09.747Z,99.90
2019-04-30T05:13:39.008Z,99.90
2019-04-30T05:16:09.228Z,99.90
2019-04-30T05:18:39.072Z,99.90
2019-04-30T05:21:08.813Z,99.90
2019-04-30T05:23:41.142Z,99.90
2019-04-30T05:26:10.936Z,99.90
2019-04-30T05:28:39.483Z,99.90
2019-04-30T05:31:08.776Z,99.90
2019-04-30T05:33:39.063Z,99.90
2019-04-30T05:36:09.315Z,99.90
2019-04-30T05:38:39.211Z,99.90
2019-04-30T05:41:09.304Z,99.90
2019-04-30T05:43:38.743Z,99.90
2019-04-30T05:46:08.374Z,99.90
2019-04-30T05:48:39.714Z,99.90
2019-04-30T05:51:08.997Z,99.90
2019-04-30T05:53:39.385Z,99.90
2019-04-30T05:56:09.406Z,99.90
2019-04-30T05:58:39.747Z,99.90
2019-04-30T06:01:09.814Z,99.90
2019-04-30T06:03:39.276Z,99.90
2019-04-30T06:06:08.799Z,99.90
2019-04-30T06:09:03.998Z,99.90
2019-04-30T06:11:42.776Z,99.90
2019-04-30T06:14:48.712Z,99.90
2019-04-30T06:17:13.505Z,99.90
2019-04-30T06:19:42.532Z,99.90
2019-04-30T06:22:11.774Z,99.90
2019-04-30T06:24:40.986Z,99.90
2019-04-30T06:27:10.896Z,99.90
2019-04-30T06:29:40.707Z,99.90
2019-04-30T06:32:09.863Z,99.90
2019-04-30T06:34:42.008Z,99.90
2019-04-30T06:37:10.055Z,99.90
2019-04-30T06:39:39.120Z,99.90
2019-04-30T06:42:12.673Z,99.90
2019-04-30T06:44:41.831Z,99.90
2019-04-30T06:47:10.513Z,99.90
2019-04-30T06:49:39.582Z,99.90
2019-04-30T06:52:20.016Z,99.90
2019-04-30T06:54:39.722Z,99.90
2019-04-30T06:57:09.689Z,99.90
2019-04-30T06:59:40.014Z,99.90
2019-04-30T07:02:09.251Z,99.90
2019-04-30T07:04:40.135Z,99.90
2019-04-30T07:07:09.651Z,99.90
2019-04-30T07:10:03.570Z,99.90
2019-04-30T07:13:08.703Z,99.90
2019-04-30T07:15:39.325Z,99.90
2019-04-30T07:18:09.098Z,99.90
2019-04-30T07:20:38.750Z,99.90
2019-04-30T07:23:09.334Z,99.90
2019-04-30T07:25:39.134Z,99.90
2019-04-30T07:28:09.083Z,99.90
2019-04-30T07:30:39.623Z,99.90
2019-04-30T07:33:09.528Z,99.90
2019-04-30T07:35:41.466Z,99.90
2019-04-30T07:38:10.529Z,99.90
2019-04-30T07:40:39.555Z,99.90
2019-04-30T07:43:09.150Z,99.90
2019-04-30T07:45:39.759Z,99.90
2019-04-30T07:48:09.442Z,99.90
2019-04-30T07:50:41.139Z,99.90
2019-04-30T07:53:11.316Z,99.90
2019-04-30T07:55:40.448Z,99.90
2019-04-30T07:58:09.574Z,99.90
2019-04-30T08:00:40.322Z,99.90
2019-04-30T08:03:21.967Z,99.90
2019-04-30T08:05:52.360Z,99.90
2019-04-30T08:08:25.311Z,99.90
2019-04-30T08:10:52.051Z,99.90
2019-04-30T08:13:22.137Z,99.90
2019-04-30T08:15:51.762Z,99.90
2019-04-30T08:18:20.769Z,99.90
2019-04-30T08:20:49.712Z,99.90
2019-04-30T08:23:33.551Z,99.90
2019-04-30T08:25:49.151Z,99.90
2019-04-30T08:28:18.745Z,99.90
2019-04-30T08:30:48.996Z,99.90
2019-04-30T08:33:19.348Z,99.90
2019-04-30T08:35:49.904Z,99.90
2019-04-30T08:38:19.253Z,99.90
2019-04-30T08:40:56.251Z,99.90
2019-04-30T08:43:19.870Z,99.90
2019-04-30T08:45:48.949Z,99.90
2019-04-30T08:48:18.994Z,99.90
2019-04-30T08:50:49.514Z,99.90
2019-04-30T08:53:28.975Z,99.90
2019-04-30T08:55:49.627Z,99.90
2019-04-30T08:58:20.484Z,99.90
2019-04-30T09:00:49.089Z,99.90
2019-04-30T09:03:19.429Z,99.90
2019-04-30T09:06:01.872Z,99.90
2019-04-30T09:08:30.930Z,99.90
2019-04-30T09:10:59.997Z,99.90
2019-04-30T09:13:28.958Z,99.90
2019-04-30T09:15:59.316Z,99.90
2019-04-30T09:18:29.166Z,99.10
2019-04-30T09:21:06.068Z,99.30
2019-04-30T09:23:43.033Z,98.30
2019-04-30T09:26:00.734Z,98.60
2019-04-30T09:28:29.751Z,99.90
2019-04-30T09:30:58.819Z,99.40
2019-04-30T09:33:29.428Z,98.50
2019-04-30T09:35:59.544Z,98.50
2019-04-30T09:38:29.073Z,98.50
2019-04-30T09:40:59.424Z,98.80
2019-04-30T09:43:28.764Z,99.90
2019-04-30T09:45:59.318Z,99.40
2019-04-30T09:48:30.542Z,98.00
2019-04-30T09:51:00.805Z,97.20
2019-04-30T09:53:30.823Z,96.10
2019-04-30T09:55:59.847Z,94.60
2019-04-30T09:58:30.012Z,94.80
2019-04-30T10:00:59.395Z,95.30
2019-04-30T10:03:30.695Z,94.40
2019-04-30T10:05:59.265Z,95.60
2019-04-30T10:08:30.724Z,96.50
2019-04-30T10:11:33.381Z,95.50
2019-04-30T10:14:02.482Z,95.90
2019-04-30T10:16:50.499Z,96.30
2019-04-30T10:19:19.586Z,96.80
2019-04-30T10:21:49.054Z,96.50
2019-04-30T10:24:19.649Z,97.70
2019-04-30T10:26:48.849Z,97.70
2019-04-30T10:29:18.494Z,97.50
2019-04-30T10:31:48.972Z,97.40
2019-04-30T10:34:18.175Z,95.60
2019-04-30T10:36:49.441Z,94.00
2019-04-30T10:39:21.411Z,95.80
2019-04-30T10:41:48.865Z,95.60
2019-04-30T10:44:18.834Z,95.10
2019-04-30T10:46:47.999Z,93.20
2019-04-30T10:49:18.980Z,93.00
2019-04-30T10:51:47.707Z,91.60
2019-04-30T10:54:24.117Z,91.40
2019-04-30T10:56:49.041Z,92.40
2019-04-30T10:59:18.123Z,92.10
2019-04-30T11:01:49.177Z,92.70
2019-04-30T11:04:19.870Z,92.50
2019-04-30T11:06:48.913Z,92.20
2019-04-30T11:09:17.931Z,90.10
2019-04-30T11:11:46.798Z,90.70
2019-04-30T11:14:15.952Z,87.20
2019-04-30T11:16:44.949Z,88.10
2019-04-30T11:19:14.263Z,84.10
2019-04-30T11:21:43.664Z,84.70
2019-04-30T11:24:12.999Z,88.30
2019-04-30T11:26:42.914Z,88.60
2019-04-30T11:29:12.662Z,89.80
2019-04-30T11:32:05.804Z,88.30
2019-04-30T11:34:34.923Z,89.80
2019-04-30T11:37:03.910Z,84.10
2019-04-30T11:39:32.914Z,82.40
2019-04-30T11:42:02.527Z,81.90
2019-04-30T11:44:31.694Z,82.60
2019-04-30T11:47:23.351Z,84.00
2019-04-30T11:49:52.400Z,79.50
2019-04-30T11:52:21.750Z,77.60
2019-04-30T11:54:54.187Z,80.40
2019-04-30T11:57:21.755Z,81.50
2019-04-30T11:59:51.044Z,78.40
2019-04-30T12:02:39.541Z,78.60
2019-04-30T12:05:09.518Z,79.90
2019-04-30T12:07:56.116Z,78.50
2019-04-30T12:10:51.066Z,79.10
2019-04-30T12:13:27.306Z,75.30
2019-04-30T12:15:58.687Z,73.40
2019-04-30T12:18:27.647Z,76.40
2019-04-30T12:20:56.589Z,71.60
2019-04-30T12:23:25.646Z,74.20
2019-04-30T12:25:54.651Z,74.70
2019-04-30T12:28:23.762Z,76.90
2019-04-30T12:30:52.844Z,75.90
2019-04-30T12:33:21.912Z,73.10
2019-04-30T12:35:51.366Z,73.80
2019-04-30T12:38:20.620Z,71.30
2019-04-30T12:40:49.741Z,70.40
2019-04-30T12:43:18.681Z,72.50
2019-04-30T12:46:01.620Z,71.30
2019-04-30T12:48:39.731Z,72.90
2019-04-30T12:51:17.674Z,69.60
2019-04-30T12:53:51.558Z,70.30
2019-04-30T12:56:28.153Z,73.60
2019-04-30T12:58:57.227Z,70.90
2019-04-30T13:01:26.322Z,70.40
2019-04-30T13:03:58.354Z,72.00
2019-04-30T13:06:26.626Z,70.80
2019-04-30T13:08:56.516Z,73.50
2019-04-30T13:11:26.383Z,68.50
2019-04-30T13:13:56.402Z,68.40
2019-04-30T13:16:25.843Z,73.80
2019-04-30T13:18:54.759Z,75.30
2019-04-30T13:21:23.743Z,75.60
2019-04-30T13:23:52.680Z,75.50
2019-04-30T13:26:21.695Z,76.00
2019-04-30T13:28:58.165Z,74.10
2019-04-30T13:31:29.306Z,74.30
2019-04-30T13:34:10.291Z,74.70
2019-04-30T13:36:40.826Z,75.00
2019-04-30T13:39:19.530Z,77.80
2019-04-30T13:41:53.911Z,75.60
2019-04-30T13:44:27.205Z,76.00
2019-04-30T13:46:57.911Z,76.00
2019-04-30T13:49:30.055Z,76.60
2019-04-30T13:51:57.695Z,77.70
2019-04-30T13:54:26.650Z,77.40
2019-04-30T13:56:55.604Z,75.50
2019-04-30T13:59:24.573Z,75.80
2019-04-30T14:01:53.486Z,76.30
2019-04-30T14:04:47.764Z,77.90
2019-04-30T14:07:34.252Z,79.30
2019-04-30T14:10:03.264Z,82.30
2019-04-30T14:12:34.160Z,84.70
2019-04-30T14:15:03.291Z,83.90
2019-04-30T14:17:32.259Z,83.00
2019-04-30T14:20:01.092Z,84.10
2019-04-30T14:22:30.061Z,84.40
2019-04-30T14:24:59.078Z,84.90
2019-04-30T14:27:28.035Z,87.30
2019-04-30T14:29:57.110Z,88.50
2019-04-30T14:32:26.000Z,86.20
2019-04-30T14:34:54.989Z,88.50
2019-04-30T14:37:23.987Z,87.90
2019-04-30T14:39:53.456Z,88.20
2019-04-30T14:42:23.495Z,89.20
2019-04-30T14:45:02.051Z,88.70
2019-04-30T14:47:40.943Z,90.00
2019-04-30T14:50:12.661Z,89.30
2019-04-30T14:53:05.719Z,87.90
2019-04-30T14:56:08.954Z,88.90
2019-04-30T14:58:56.932Z,90.90
2019-04-30T15:01:41.839Z,90.60
2019-04-30T15:04:10.920Z,90.60
2019-04-30T15:06:39.881Z,91.20
2019-04-30T15:09:09.394Z,90.60
2019-04-30T15:11:38.825Z,90.40
2019-04-30T15:14:07.916Z,91.00
2019-04-30T15:16:36.879Z,91.00
2019-04-30T15:19:05.918Z,90.90
2019-04-30T15:21:34.922Z,91.10
2019-04-30T15:24:24.494Z,91.50
2019-04-30T15:26:57.545Z,91.10
2019-04-30T15:29:24.331Z,92.10
2019-04-30T15:31:53.421Z,91.70
2019-04-30T15:34:22.375Z,91.40
2019-04-30T15:36:51.361Z,92.10
2019-04-30T15:39:33.750Z,92.20
2019-04-30T15:42:02.691Z,92.40
2019-04-30T15:44:31.747Z,92.50
2019-04-30T15:47:00.844Z,92.20
2019-04-30T15:49:29.859Z,92.40
2019-04-30T15:51:58.763Z,92.70
2019-04-30T15:54:29.270Z,92.80
2019-04-30T15:57:00.425Z,93.10
2019-04-30T15:59:37.207Z,93.40
2019-04-30T16:02:14.207Z,93.40
2019-04-30T16:04:59.738Z,93.50
2019-04-30T16:07:29.558Z,94.10
2019-04-30T16:10:18.563Z,94.40
2019-04-30T16:12:58.730Z,93.70
2019-04-30T16:15:27.432Z,94.20
2019-04-30T16:17:59.735Z,93.90
2019-04-30T16:20:30.101Z,94.10
2019-04-30T16:22:59.269Z,94.20
2019-04-30T16:25:30.231Z,94.40
2019-04-30T16:27:58.990Z,93.60
2019-04-30T16:30:28.916Z,93.80
2019-04-30T16:32:59.613Z,94.00
2019-04-30T16:35:29.541Z,93.80
2019-04-30T16:37:59.401Z,94.70
2019-04-30T16:40:29.122Z,94.80
2019-04-30T16:42:58.109Z,94.00
2019-04-30T16:45:28.987Z,94.10
2019-04-30T16:47:57.907Z,94.00
2019-04-30T16:50:26.877Z,93.90
2019-04-30T16:52:55.697Z,93.90
2019-04-30T16:55:24.793Z,94.00
2019-04-30T16:57:54.062Z,94.00
2019-04-30T17:00:23.544Z,92.90
2019-04-30T17:02:57.514Z,93.00
2019-04-30T17:05:49.889Z,93.70
2019-04-30T17:08:28.990Z,93.60
2019-04-30T17:11:10.402Z,93.40
2019-04-30T17:13:49.448Z,93.70
2019-04-30T17:16:20.018Z,93.10
2019-04-30T17:18:50.081Z,93.40
2019-04-30T17:21:19.728Z,93.10
2019-04-30T17:23:50.940Z,93.20
2019-04-30T17:26:19.768Z,93.60
2019-04-30T17:28:49.916Z,93.90
2019-04-30T17:31:19.198Z,93.80
2019-04-30T17:33:48.280Z,93.70
2019-04-30T17:36:18.792Z,94.10
2019-04-30T17:38:47.992Z,94.30
2019-04-30T17:41:17.155Z,94.70
2019-04-30T17:43:46.229Z,94.50
2019-04-30T17:46:15.246Z,94.60
2019-04-30T17:48:44.177Z,94.70
2019-04-30T17:51:13.126Z,95.20
2019-04-30T17:53:59.687Z,95.40
2019-04-30T17:56:28.785Z,95.10
2019-04-30T17:58:57.875Z,94.90
2019-04-30T18:01:26.998Z,95.70
2019-04-30T18:03:55.976Z,96.10
2019-04-30T18:06:25.112Z,96.10
2019-04-30T18:08:54.037Z,96.00
2019-04-30T18:11:23.144Z,96.10
2019-04-30T18:13:52.142Z,96.20
2019-04-30T18:16:21.126Z,96.70
2019-04-30T18:18:55.608Z,96.70
2019-04-30T18:21:48.629Z,97.00
2019-04-30T18:24:45.938Z,96.90
2019-04-30T18:27:29.333Z,97.20
2019-04-30T18:29:58.142Z,97.40
2019-04-30T18:32:29.598Z,97.70
2019-04-30T18:34:59.167Z,98.10
2019-04-30T18:37:28.730Z,98.10
2019-04-30T18:39:59.997Z,98.30
2019-04-30T18:42:29.075Z,98.30
2019-04-30T18:44:58.387Z,98.40
2019-04-30T18:47:27.751Z,98.80
2019-04-30T18:49:56.716Z,99.00
2019-04-30T18:52:25.838Z,99.20
2019-04-30T18:54:54.742Z,99.20
2019-04-30T18:57:23.651Z,99.30
2019-04-30T18:59:52.610Z,99.80
2019-04-30T19:02:21.656Z,99.90
2019-04-30T19:04:50.752Z,99.90
2019-04-30T19:07:25.831Z,99.90
2019-04-30T19:10:11.796Z,99.90
2019-04-30T19:12:59.107Z,99.90
2019-04-30T19:16:17.902Z,99.90
2019-04-30T19:18:30.592Z,99.90
2019-04-30T19:21:00.153Z,99.90
2019-04-30T19:23:29.312Z,99.90
2019-04-30T19:25:59.659Z,99.90
2019-04-30T19:28:28.865Z,99.90
2019-04-30T19:31:00.451Z,99.90
2019-04-30T19:33:30.754Z,99.90
2019-04-30T19:35:59.522Z,99.90
2019-04-30T19:38:28.542Z,99.90
2019-04-30T19:40:57.660Z,99.90
2019-04-30T19:43:28.477Z,99.90
2019-04-30T19:45:59.209Z,99.90
2019-04-30T19:48:28.298Z,99.90
2019-04-30T19:50:58.662Z,99.90
2019-04-30T19:53:27.741Z,99.90
2019-04-30T19:55:56.811Z,99.90
2019-04-30T19:58:37.942Z,99.90
2019-04-30T20:00:56.383Z,99.90
2019-04-30T20:03:25.714Z,99.90
2019-04-30T20:05:54.710Z,99.90
2019-04-30T20:08:23.600Z,99.90
2019-04-30T20:10:52.643Z,99.90
2019-04-30T20:13:32.196Z,99.90
2019-04-30T20:15:52.436Z,99.90
2019-04-30T20:18:21.570Z,99.90
2019-04-30T20:20:52.742Z,99.90
2019-04-30T20:23:21.641Z,99.90
2019-04-30T20:25:50.684Z,99.90
2019-04-30T20:28:19.752Z,99.90
2019-04-30T20:30:49.059Z,99.90
2019-04-30T20:33:19.019Z,99.90
2019-04-30T20:35:48.929Z,99.90
2019-04-30T20:38:42.377Z,99.90
2019-04-30T20:41:11.776Z,99.90
2019-04-30T20:43:40.756Z,99.90
2019-04-30T20:46:09.762Z,99.90
2019-04-30T20:48:39.283Z,99.90
2019-04-30T20:51:09.687Z,99.90
2019-04-30T20:53:40.860Z,99.90
2019-04-30T20:56:09.639Z,99.90
2019-04-30T20:58:40.503Z,99.90
2019-04-30T21:01:09.692Z,99.90
2019-04-30T21:03:39.602Z,99.90
2019-04-30T21:06:09.022Z,99.90
2019-04-30T21:08:38.135Z,99.90
2019-04-30T21:11:09.295Z,99.90
2019-04-30T21:13:39.203Z,99.90
2019-04-30T21:16:08.407Z,99.90
2019-04-30T21:18:39.073Z,99.90
2019-04-30T21:21:08.091Z,99.90
2019-04-30T21:23:39.137Z,99.90
2019-04-30T21:26:08.551Z,99.90
2019-04-30T21:28:39.340Z,99.90
2019-04-30T21:31:26.116Z,99.90
2019-04-30T21:34:00.596Z,99.90
2019-04-30T21:36:29.720Z,99.90
2019-04-30T21:38:59.118Z,99.90
2019-04-30T21:41:29.648Z,99.90
2019-04-30T21:43:58.885Z,99.90
2019-04-30T21:46:29.288Z,99.90
2019-04-30T21:48:58.753Z,99.90
2019-04-30T21:51:27.935Z,99.90
2019-04-30T21:53:57.061Z,99.90
2019-04-30T21:56:25.909Z,99.90
2019-04-30T21:58:54.935Z,99.90
2019-04-30T22:01:25.364Z,99.90
2019-04-30T22:03:54.806Z,99.90
2019-04-30T22:06:24.079Z,99.90
2019-04-30T22:08:53.183Z,99.90
2019-04-30T22:11:22.233Z,99.90
2019-04-30T22:13:51.213Z,99.90
2019-04-30T22:16:20.569Z,99.90
2019-04-30T22:18:49.829Z,99.90
2019-04-30T22:21:19.090Z,99.90
2019-04-30T22:23:48.167Z,99.90
2019-04-30T22:26:17.143Z,99.90
2019-04-30T22:28:46.157Z,99.90
2019-04-30T22:31:15.259Z,99.90
2019-04-30T22:33:44.402Z,99.90
2019-04-30T22:36:21.800Z,99.90
2019-04-30T22:39:29.983Z,99.90
2019-04-30T22:42:34.076Z,99.90
2019-04-30T22:45:06.139Z,99.90
2019-04-30T22:47:35.218Z,99.90
2019-04-30T22:50:05.593Z,99.90
2019-04-30T22:52:34.624Z,99.90
2019-04-30T22:55:03.799Z,99.90
2019-04-30T22:57:32.823Z,99.90
2019-04-30T23:00:01.960Z,99.90
2019-04-30T23:02:55.902Z,99.90
2019-04-30T23:05:25.052Z,99.90
2019-04-30T23:07:54.002Z,99.90
2019-04-30T23:10:23.430Z,99.90
2019-04-30T23:12:52.348Z,99.90
2019-04-30T23:15:22.413Z,99.90
2019-04-30T23:17:51.608Z,99.90
2019-04-30T23:20:20.720Z,99.90
2019-04-30T23:22:49.807Z,99.90
2019-04-30T23:25:18.827Z,99.90
2019-04-30T23:27:47.688Z,99.90
2019-04-30T23:30:16.966Z,99.90
2019-04-30T23:32:46.079Z,99.90
2019-04-30T23:35:15.271Z,99.90
2019-04-30T23:37:44.298Z,99.90
2019-04-30T23:40:29.184Z,99.90
2019-04-30T23:42:58.543Z,99.90
2019-04-30T23:45:28.559Z,99.90
2019-04-30T23:47:57.519Z,99.90
2019-04-30T23:50:26.686Z,99.90
2019-04-30T23:52:55.702Z,99.90
2019-04-30T23:55:24.748Z,99.90
2019-04-30T23:57:53.861Z,99.90
